Time;durP1;ratioP1;P1;durP2;ratioP2;P2;SDS_P1;SDS_P2;PMS_P1;PMS_P2;Temp;Humidity;BMP_temperature;BMP_pressure;BME280_temperature;BME280_humidity;BME280_pressure;Samples;Min_cycle;Max_cycle;Signal;HPM_P1;HPM_P2
2023/05/14 00:00:39;;;;;;;7.88;5.85;;;16.90;92.70;;;;;;6166405;23;20317;-90
2023/05/14 00:03:04;;;;;;;9.38;6.47;;;16.90;92.80;;;;;;6166646;23;20091;-91
2023/05/14 00:05:30;;;;;;;8.40;6.40;;;16.90;92.80;;;;;;6166383;23;20005;-89
2023/05/14 00:07:56;;;;;;;7.43;6.00;;;16.80;92.90;;;;;;6190597;23;20018;-90
2023/05/14 00:10:21;;;;;;;11.25;6.28;;;16.80;92.90;;;;;;6166150;23;20051;-91
2023/05/14 00:12:47;;;;;;;7.20;5.65;;;16.70;93.00;;;;;;6166387;23;20389;-89
2023/05/14 00:15:13;;;;;;;8.07;6.13;;;16.70;93.10;;;;;;6164059;23;20013;-91
2023/05/14 00:17:38;;;;;;;8.00;5.90;;;16.70;93.10;;;;;;6195069;23;20001;-91
2023/05/14 00:20:10;;;;;;;8.13;6.70;;;16.70;93.20;;;;;;6199055;23;20027;-89
2023/05/14 00:22:39;;;;;;;8.70;6.57;;;16.60;93.30;;;;;;6205637;23;20005;-90
2023/05/14 00:25:06;;;;;;;10.38;7.40;;;16.50;93.40;;;;;;6211936;23;20005;-89
2023/05/14 00:27:32;;;;;;;7.22;6.55;;;16.50;93.50;;;;;;6214064;23;20050;-89
2023/05/14 00:29:58;;;;;;;8.43;7.18;;;16.50;93.50;;;;;;6212671;23;20004;-90
2023/05/14 00:32:23;;;;;;;9.65;6.63;;;16.50;93.60;;;;;;6181692;23;20001;-89
2023/05/14 00:34:51;;;;;;;9.90;7.00;;;16.40;93.60;;;;;;6188423;23;20004;-88
2023/05/14 00:37:17;;;;;;;9.55;6.85;;;16.40;93.70;;;;;;6198933;23;20008;-90
2023/05/14 00:39:45;;;;;;;8.77;7.03;;;16.40;93.80;;;;;;6192229;23;20001;-90
2023/05/14 00:42:11;;;;;;;8.23;7.38;;;16.30;93.80;;;;;;6192646;23;20001;-91
2023/05/14 00:44:37;;;;;;;7.93;7.13;;;16.20;93.90;;;;;;6168374;23;20031;-91
2023/05/14 00:47:02;;;;;;;10.63;7.10;;;16.20;94.00;;;;;;6168340;23;20005;-89
2023/05/14 00:49:28;;;;;;;8.35;6.90;;;16.20;94.10;;;;;;6192794;23;20003;-90
2023/05/14 00:51:57;;;;;;;9.02;7.05;;;16.20;94.10;;;;;;6167608;23;20004;-91
2023/05/14 00:54:24;;;;;;;8.38;6.95;;;16.10;94.10;;;;;;6168721;23;20031;-90
2023/05/14 00:56:50;;;;;;;8.75;7.47;;;16.10;94.20;;;;;;6192450;23;20063;-89
2023/05/14 00:59:15;;;;;;;9.48;7.43;;;16.00;94.20;;;;;;6167741;23;20004;-90
2023/05/14 01:01:41;;;;;;;9.65;7.25;;;16.00;94.40;;;;;;6167792;23;20092;-90
2023/05/14 01:04:09;;;;;;;10.23;7.45;;;16.00;94.40;;;;;;6192320;23;20001;-90
2023/05/14 01:06:57;;;;;;;11.07;7.78;;;16.00;94.50;;;;;;6192456;23;20011;-90
2023/05/14 01:09:39;;;;;;;9.02;6.85;;;16.00;94.60;;;;;;6192433;23;20058;-91
2023/05/14 01:12:18;;;;;;;8.35;7.28;;;15.90;94.70;;;;;;6192686;23;19996;-90
2023/05/14 01:14:43;;;;;;;7.65;6.68;;;15.90;94.80;;;;;;6192815;23;20427;-89
2023/05/14 01:17:12;;;;;;;8.25;7.10;;;15.90;94.80;;;;;;6219178;23;19997;-90
2023/05/14 01:19:42;;;;;;;7.63;6.28;;;15.90;94.90;;;;;;6192381;23;20015;-89
2023/05/14 01:22:09;;;;;;;8.15;6.88;;;15.90;95.00;;;;;;6192472;23;20326;-89
2023/05/14 01:24:35;;;;;;;8.70;7.13;;;15.90;94.90;;;;;;6192472;23;20139;-89
2023/05/14 01:27:22;;;;;;;9.52;7.45;;;15.90;95.00;;;;;;6192355;23;20015;-90
2023/05/14 01:30:08;;;;;;;8.95;6.97;;;15.90;95.10;;;;;;6218516;23;20000;-90
2023/05/14 01:32:35;;;;;;;10.27;7.10;;;15.80;95.10;;;;;;6192304;23;20032;-90
2023/05/14 01:35:02;;;;;;;8.65;7.10;;;15.80;95.20;;;;;;6218921;23;20059;-90
2023/05/14 01:37:30;;;;;;;9.52;6.78;;;15.80;95.50;;;;;;6192220;23;20001;-89
2023/05/14 01:39:56;;;;;;;8.85;7.43;;;15.80;95.40;;;;;;6192112;23;20007;-88
2023/05/14 01:42:23;;;;;;;7.97;6.88;;;15.70;95.40;;;;;;6192120;23;20083;-90
2023/05/14 01:44:49;;;;;;;9.10;7.40;;;15.70;95.50;;;;;;6192533;23;20008;-90
2023/05/14 01:47:15;;;;;;;8.18;6.60;;;15.70;95.50;;;;;;6192451;23;20058;-89
2023/05/14 01:49:40;;;;;;;11.38;7.40;;;15.70;95.60;;;;;;6167492;23;20320;-88
2023/05/14 01:52:07;;;;;;;9.00;7.40;;;15.70;95.60;;;;;;6167228;23;20304;-89
2023/05/14 01:54:33;;;;;;;9.75;7.13;;;15.70;95.70;;;;;;6167465;23;20008;-89
2023/05/14 01:56:58;;;;;;;8.75;7.60;;;15.60;95.70;;;;;;6191930;23;20028;-88
2023/05/14 01:59:24;;;;;;;9.13;7.20;;;15.60;95.80;;;;;;6166887;23;20335;-91
2023/05/14 02:01:50;;;;;;;9.73;7.53;;;15.60;96.00;;;;;;6167497;23;20078;-89
2023/05/14 02:04:16;;;;;;;8.35;7.25;;;15.60;96.00;;;;;;6192022;23;20396;-89
2023/05/14 02:06:41;;;;;;;9.35;7.28;;;15.50;96.10;;;;;;6191998;23;20469;-89
2023/05/14 02:09:07;;;;;;;9.13;8.10;;;15.50;96.20;;;;;;6192770;23;20005;-89
2023/05/14 02:11:33;;;;;;;11.32;7.63;;;15.50;96.20;;;;;;6193994;23;20351;-90
2023/05/14 02:13:58;;;;;;;10.70;7.78;;;15.50;96.30;;;;;;6218985;23;19993;-88
2023/05/14 02:16:24;;;;;;;11.25;7.28;;;15.40;96.30;;;;;;6219317;23;20012;-90
2023/05/14 02:18:52;;;;;;;8.82;7.35;;;15.40;96.40;;;;;;6219120;23;20001;-89
2023/05/14 02:21:18;;;;;;;10.05;7.63;;;15.30;96.40;;;;;;6190887;23;20023;-88
2023/05/14 02:23:43;;;;;;;8.57;7.78;;;15.40;96.50;;;;;;6205340;23;20427;-89
2023/05/14 02:26:11;;;;;;;10.80;7.97;;;15.30;96.60;;;;;;6191038;23;20005;-87
2023/05/14 02:28:37;;;;;;;8.95;8.05;;;15.30;96.70;;;;;;6191178;23;20015;-89
2023/05/14 02:31:02;;;;;;;11.45;7.97;;;15.20;96.80;;;;;;6191397;23;20088;-90
2023/05/14 02:33:28;;;;;;;10.00;7.40;;;15.20;96.90;;;;;;6191501;23;20004;-91
2023/05/14 02:35:53;;;;;;;9.25;7.85;;;15.10;97.00;;;;;;6191078;23;20009;-91
2023/05/14 02:38:19;;;;;;;10.07;8.30;;;15.10;97.10;;;;;;6191648;23;20012;-91
2023/05/14 02:40:45;;;;;;;12.73;8.25;;;15.10;97.10;;;;;;6191540;23;19997;-89
2023/05/14 02:43:11;;;;;;;9.48;7.85;;;15.00;97.20;;;;;;6191346;23;20005;-90
2023/05/14 02:45:36;;;;;;;9.82;8.00;;;15.00;97.30;;;;;;6165859;23;20415;-90
2023/05/14 02:48:02;;;;;;;10.27;8.55;;;15.00;97.40;;;;;;6191427;23;20012;-89
2023/05/14 02:50:28;;;;;;;11.15;8.70;;;14.90;97.40;;;;;;6191571;23;20083;-89
2023/05/14 02:52:53;;;;;;;11.40;9.05;;;14.80;97.60;;;;;;6166516;23;20008;-91
2023/05/14 02:55:20;;;;;;;8.98;8.05;;;14.80;97.60;;;;;;6191673;23;20005;-90
2023/05/14 02:57:45;;;;;;;10.13;8.38;;;14.80;97.70;;;;;;6191321;23;20000;-91
2023/05/14 03:00:12;;;;;;;10.98;8.23;;;14.80;97.80;;;;;;6191213;23;20099;-89
2023/05/14 03:02:37;;;;;;;10.85;8.65;;;14.70;97.80;;;;;;6166716;23;20008;-90
2023/05/14 03:05:03;;;;;;;10.82;8.02;;;14.70;97.90;;;;;;6190921;23;20390;-89
2023/05/14 03:07:29;;;;;;;11.68;8.30;;;14.70;98.00;;;;;;6190907;23;20028;-91
2023/05/14 03:09:55;;;;;;;10.70;8.45;;;14.70;98.10;;;;;;6166262;23;20020;-90
2023/05/14 03:12:21;;;;;;;11.25;8.82;;;14.60;98.20;;;;;;6166192;23;20091;-89
2023/05/14 03:14:46;;;;;;;10.80;8.70;;;14.60;98.30;;;;;;6166586;23;20071;-89
2023/05/14 03:17:12;;;;;;;9.60;8.60;;;14.60;98.30;;;;;;6191185;23;20430;-89
2023/05/14 03:19:38;;;;;;;11.77;9.20;;;14.60;98.50;;;;;;6190798;23;20087;-90
2023/05/14 03:22:03;;;;;;;11.45;8.65;;;14.50;98.50;;;;;;6191403;23;20007;-89
2023/05/14 03:24:30;;;;;;;10.43;8.60;;;14.40;98.60;;;;;;6190881;23;20005;-90
2023/05/14 03:26:56;;;;;;;11.82;8.27;;;14.40;98.70;;;;;;6190767;23;20055;-91
2023/05/14 03:29:21;;;;;;;10.57;8.80;;;14.30;98.80;;;;;;6161872;23;20005;-89
2023/05/14 03:31:48;;;;;;;10.35;8.50;;;14.30;98.90;;;;;;6191368;23;20039;-89
2023/05/14 03:34:14;;;;;;;14.07;9.07;;;14.20;99.00;;;;;;6191197;23;20330;-89
2023/05/14 03:36:49;;;;;;;12.50;8.30;;;14.20;99.10;;;;;;6190713;23;20040;-91
2023/05/14 03:39:18;;;;;;;12.68;8.75;;;14.20;99.20;;;;;;6217357;23;20411;-91
2023/05/14 03:41:45;;;;;;;14.73;9.27;;;14.20;99.30;;;;;;6191610;23;19996;-91
2023/05/14 03:44:11;;;;;;;10.40;9.05;;;14.10;99.40;;;;;;6191547;23;20419;-89
2023/05/14 03:46:37;;;;;;;11.77;9.32;;;14.00;99.50;;;;;;6191571;23;20092;-90
2023/05/14 03:49:03;;;;;;;12.43;10.15;;;14.00;99.60;;;;;;6166500;23;20032;-90
2023/05/14 03:51:29;;;;;;;10.70;9.30;;;13.90;99.60;;;;;;6225842;23;20309;-90
2023/05/14 03:53:54;;;;;;;10.73;9.55;;;14.00;99.80;;;;;;6218013;23;20020;-90
2023/05/14 03:56:21;;;;;;;11.48;10.25;;;13.90;99.80;;;;;;6243633;23;19985;-89
2023/05/14 03:58:49;;;;;;;10.57;9.30;;;13.90;99.80;;;;;;6193628;23;20001;-91
2023/05/14 04:01:14;;;;;;;13.23;9.45;;;13.90;99.90;;;;;;6188749;23;20020;-89
2023/05/14 04:03:40;;;;;;;12.75;9.77;;;13.90;99.90;;;;;;6191503;23;20003;-89
2023/05/14 04:06:06;;;;;;;10.93;8.77;;;13.90;99.90;;;;;;6191622;23;20012;-90
2023/05/14 04:08:31;;;;;;;12.15;9.85;;;13.90;99.90;;;;;;6166018;23;20040;-89
2023/05/14 04:10:57;;;;;;;11.68;10.45;;;13.90;99.90;;;;;;6190723;23;20015;-90
2023/05/14 04:13:23;;;;;;;12.25;9.60;;;13.90;99.90;;;;;;6190468;23;20001;-89
2023/05/14 04:15:48;;;;;;;12.60;10.07;;;13.80;99.90;;;;;;6190973;23;20005;-89
2023/05/14 04:18:14;;;;;;;12.32;9.80;;;13.80;99.90;;;;;;6216465;23;19997;-90
2023/05/14 04:20:43;;;;;;;14.30;10.60;;;13.80;99.90;;;;;;6190722;23;19997;-89
2023/05/14 04:23:08;;;;;;;13.02;10.43;;;13.80;99.90;;;;;;6166755;23;20011;-89
2023/05/14 04:25:34;;;;;;;12.40;9.90;;;13.80;99.90;;;;;;6166010;23;20012;-90
2023/05/14 04:27:59;;;;;;;11.93;10.32;;;13.80;99.90;;;;;;6166716;23;20009;-88
2023/05/14 04:30:25;;;;;;;15.30;10.70;;;13.80;99.90;;;;;;6165613;23;20011;-89
2023/05/14 04:32:51;;;;;;;12.68;11.00;;;13.80;99.90;;;;;;6166313;23;20060;-90
2023/05/14 04:35:17;;;;;;;10.85;9.43;;;13.70;99.90;;;;;;6190905;23;20009;-89
2023/05/14 04:37:43;;;;;;;12.80;10.02;;;13.70;99.90;;;;;;6222602;23;20000;-90
2023/05/14 04:40:11;;;;;;;12.52;11.18;;;13.70;99.90;;;;;;6168139;23;20427;-90
2023/05/14 04:42:37;;;;;;;13.50;10.38;;;13.70;99.90;;;;;;6191071;23;20084;-90
2023/05/14 04:45:05;;;;;;;12.20;11.00;;;13.80;99.90;;;;;;6217208;23;20054;-89
2023/05/14 04:47:31;;;;;;;12.73;11.13;;;13.80;99.90;;;;;;6190748;23;20427;-90
2023/05/14 04:49:56;;;;;;;14.57;11.15;;;13.80;99.90;;;;;;6166098;23;20016;-89
2023/05/14 04:52:23;;;;;;;17.45;10.50;;;13.80;99.90;;;;;;6217283;23;20075;-90
2023/05/14 04:54:49;;;;;;;14.65;10.70;;;13.90;99.90;;;;;;6166341;23;20009;-89
2023/05/14 04:57:14;;;;;;;12.23;9.93;;;13.90;99.90;;;;;;6190417;23;20039;-90
2023/05/14 04:59:43;;;;;;;14.18;10.27;;;13.90;99.90;;;;;;6165518;23;20080;-90
2023/05/14 05:02:11;;;;;;;15.02;10.98;;;13.90;99.90;;;;;;6190645;23;20024;-91
2023/05/14 05:04:37;;;;;;;12.43;10.68;;;14.00;99.90;;;;;;6190220;23;20434;-89
2023/05/14 05:07:04;;;;;;;12.13;10.90;;;14.00;99.90;;;;;;6165929;23;20450;-89
2023/05/14 05:09:30;;;;;;;11.55;9.75;;;14.10;99.90;;;;;;6189850;23;20019;-90
2023/05/14 05:11:56;;;;;;;11.45;9.93;;;14.10;99.90;;;;;;6191121;23;20019;-90
2023/05/14 05:14:21;;;;;;;14.68;11.15;;;14.10;99.90;;;;;;6165750;23;20032;-91
2023/05/14 05:16:47;;;;;;;16.60;11.00;;;14.20;99.90;;;;;;6166428;23;20075;-90
2023/05/14 05:19:13;;;;;;;13.63;10.70;;;14.10;99.90;;;;;;6190369;23;20009;-90
2023/05/14 05:21:39;;;;;;;14.43;10.38;;;14.20;99.90;;;;;;6165870;23;20655;-91
2023/05/14 05:24:06;;;;;;;15.48;10.60;;;14.20;99.90;;;;;;6190607;23;20005;-89
2023/05/14 05:26:35;;;;;;;11.75;10.13;;;14.20;99.90;;;;;;6190543;23;20008;-91
2023/05/14 05:29:01;;;;;;;16.10;11.80;;;14.30;99.90;;;;;;6167410;23;20009;-88
2023/05/14 05:31:27;;;;;;;13.20;11.23;;;14.30;99.90;;;;;;6200842;23;19985;-88
2023/05/14 05:33:53;;;;;;;15.80;11.00;;;14.30;99.90;;;;;;6194079;23;20461;-90
2023/05/14 05:36:19;;;;;;;12.70;10.70;;;14.30;99.90;;;;;;6194350;23;20012;-90
2023/05/14 05:38:44;;;;;;;13.27;10.98;;;14.30;99.90;;;;;;6194287;23;20052;-91
2023/05/14 05:41:10;;;;;;;14.00;9.88;;;14.30;99.90;;;;;;6194181;23;20001;-89
2023/05/14 05:43:36;;;;;;;14.55;11.52;;;14.30;99.90;;;;;;6194758;23;20035;-89
2023/05/14 05:46:01;;;;;;;12.52;10.63;;;14.40;99.90;;;;;;6193277;23;20339;-89
2023/05/14 05:48:27;;;;;;;14.32;10.30;;;14.40;99.90;;;;;;6167713;23;20008;-89
2023/05/14 05:50:53;;;;;;;11.68;10.48;;;14.40;99.90;;;;;;6167983;23;20012;-89
2023/05/14 05:53:18;;;;;;;15.77;10.80;;;14.40;99.90;;;;;;6167464;23;20080;-91
2023/05/14 05:55:44;;;;;;;14.38;11.45;;;14.40;99.90;;;;;;6192041;23;20083;-92
2023/05/14 05:58:10;;;;;;;13.35;10.90;;;14.30;99.90;;;;;;6192344;23;20024;-90
2023/05/14 06:00:35;;;;;;;14.25;11.60;;;14.40;99.90;;;;;;6192203;23;20004;-89
2023/05/14 06:03:01;;;;;;;13.23;10.50;;;14.40;99.90;;;;;;6218562;23;20008;-90
2023/05/14 06:05:27;;;;;;;12.57;9.80;;;14.40;99.90;;;;;;6167327;23;20068;-89
2023/05/14 06:07:52;;;;;;;13.07;10.27;;;14.50;99.90;;;;;;6162161;23;20037;-90
2023/05/14 06:10:18;;;;;;;12.55;10.38;;;14.50;99.90;;;;;;6181831;23;20017;-89
2023/05/14 06:12:44;;;;;;;13.30;9.70;;;14.50;99.90;;;;;;6191854;23;20035;-89
2023/05/14 06:15:11;;;;;;;12.82;9.40;;;14.60;99.90;;;;;;6167078;23;20335;-90
2023/05/14 06:17:37;;;;;;;10.98;9.55;;;14.70;99.90;;;;;;6166785;23;20005;-90
2023/05/14 06:20:06;;;;;;;12.30;9.98;;;14.70;99.90;;;;;;6192017;23;20075;-89
2023/05/14 06:22:33;;;;;;;13.45;10.00;;;14.80;99.90;;;;;;6192532;23;20055;-89
2023/05/14 06:24:58;;;;;;;11.63;9.95;;;14.80;99.90;;;;;;6191825;23;20087;-89
2023/05/14 06:27:24;;;;;;;13.73;10.38;;;14.90;99.90;;;;;;6191487;23;20008;-89
2023/05/14 06:29:50;;;;;;;13.77;10.55;;;14.90;99.90;;;;;;6217683;23;20032;-90
2023/05/14 06:32:16;;;;;;;12.65;9.93;;;15.00;99.90;;;;;;6191550;23;20435;-91
2023/05/14 06:34:42;;;;;;;11.30;9.02;;;15.00;99.90;;;;;;6217843;23;20486;-89
2023/05/14 06:37:08;;;;;;;17.23;11.10;;;15.10;99.90;;;;;;6191806;23;20009;-89
2023/05/14 06:39:35;;;;;;;12.15;9.68;;;15.10;99.90;;;;;;6190572;23;20004;-88
2023/05/14 06:42:01;;;;;;;11.48;9.27;;;15.20;99.90;;;;;;6189987;23;20023;-89
2023/05/14 06:44:27;;;;;;;12.15;9.38;;;15.20;99.90;;;;;;6166488;23;20419;-90
2023/05/14 06:46:53;;;;;;;10.93;9.18;;;15.30;99.90;;;;;;6216690;23;20327;-89
2023/05/14 06:49:19;;;;;;;9.48;8.25;;;15.40;99.90;;;;;;6191007;23;20012;-89
2023/05/14 06:51:44;;;;;;;10.23;8.38;;;15.50;99.90;;;;;;6191315;23;20474;-88
2023/05/14 06:54:10;;;;;;;9.75;8.73;;;15.60;99.90;;;;;;6191820;23;20064;-90
2023/05/14 06:56:36;;;;;;;12.73;8.77;;;15.70;99.90;;;;;;6166686;23;20435;-90
2023/05/14 06:59:02;;;;;;;13.18;10.27;;;15.80;99.90;;;;;;6166403;23;20000;-88
2023/05/14 07:01:27;;;;;;;11.50;8.75;;;15.80;99.90;;;;;;6191113;23;20300;-87
2023/05/14 07:03:53;;;;;;;9.82;8.77;;;15.80;99.90;;;;;;6217921;23;20007;-91
2023/05/14 07:06:19;;;;;;;12.48;9.75;;;15.90;99.90;;;;;;6218667;23;20486;-90
2023/05/14 07:08:44;;;;;;;10.55;8.35;;;16.00;99.90;;;;;;6192639;23;20008;-90
2023/05/14 07:11:12;;;;;;;10.00;8.30;;;16.10;99.90;;;;;;6219393;23;20032;-87
2023/05/14 07:13:38;;;;;;;11.35;8.40;;;16.20;99.90;;;;;;6179710;23;20005;-88
2023/05/14 07:16:05;;;;;;;10.35;7.53;;;16.30;99.90;;;;;;6216749;23;19991;-87
2023/05/14 07:18:30;;;;;;;9.13;7.88;;;16.40;99.90;;;;;;6217180;23;20490;-87
2023/05/14 07:20:56;;;;;;;10.63;7.65;;;16.50;99.90;;;;;;6192364;23;20004;-88
2023/05/14 07:23:22;;;;;;;12.20;9.20;;;16.60;99.90;;;;;;6190299;23;19985;-88
2023/05/14 07:25:47;;;;;;;11.00;8.63;;;16.60;99.90;;;;;;6194162;23;20013;-89
2023/05/14 07:28:13;;;;;;;11.77;8.23;;;16.60;99.90;;;;;;6166657;23;20066;-88
2023/05/14 07:30:39;;;;;;;9.98;8.18;;;16.70;99.90;;;;;;6191264;23;20005;-90
2023/05/14 07:33:04;;;;;;;9.00;7.18;;;16.80;99.90;;;;;;6190935;23;20008;-88
2023/05/14 07:35:30;;;;;;;9.10;7.00;;;16.90;99.90;;;;;;6191150;23;20004;-89
2023/05/14 07:37:56;;;;;;;11.18;7.20;;;16.90;99.90;;;;;;6165934;23;20459;-89
2023/05/14 07:40:24;;;;;;;12.32;7.22;;;17.00;99.90;;;;;;6166409;23;20059;-89
2023/05/14 07:42:50;;;;;;;6.70;6.00;;;17.10;99.90;;;;;;6165607;23;20080;-89
2023/05/14 07:45:18;;;;;;;12.40;7.90;;;17.20;99.90;;;;;;6166343;23;20040;-88
2023/05/14 07:47:44;;;;;;;8.82;7.68;;;17.30;99.70;;;;;;6166026;23;20272;-89
2023/05/14 07:50:10;;;;;;;7.18;6.47;;;17.30;99.60;;;;;;6165945;23;20005;-88
2023/05/14 07:52:36;;;;;;;7.43;6.22;;;17.30;99.50;;;;;;6165162;23;20565;-86
2023/05/14 07:55:02;;;;;;;6.70;5.82;;;17.40;99.50;;;;;;6140753;23;20008;-90
2023/05/14 07:57:28;;;;;;;7.38;6.15;;;17.50;99.60;;;;;;6191010;23;19997;-88
2023/05/14 07:59:54;;;;;;;14.07;7.63;;;17.60;99.60;;;;;;6165451;23;20004;-88
2023/05/14 08:02:19;;;;;;;10.68;7.68;;;17.60;99.20;;;;;;6166591;23;20331;-89
2023/05/14 08:04:45;;;;;;;9.38;6.85;;;17.60;99.10;;;;;;6191521;23;20088;-89
2023/05/14 08:07:11;;;;;;;10.60;6.80;;;17.70;99.10;;;;;;6190941;23;20015;-89
2023/05/14 08:09:36;;;;;;;7.35;6.20;;;17.70;99.10;;;;;;6166908;23;20079;-91
2023/05/14 08:12:02;;;;;;;11.27;7.35;;;17.70;99.10;;;;;;6166674;23;20013;-90
2023/05/14 08:14:28;;;;;;;7.40;5.60;;;17.70;98.80;;;;;;6166446;23;20005;-91
2023/05/14 08:17:03;;;;;;;7.90;6.05;;;17.80;98.90;;;;;;6191635;23;20075;-89
2023/05/14 08:19:28;;;;;;;7.75;6.30;;;17.90;98.70;;;;;;6193088;23;20084;-90
2023/05/14 08:21:54;;;;;;;8.27;5.95;;;17.90;98.30;;;;;;6166517;23;20360;-90
2023/05/14 08:24:20;;;;;;;7.72;5.60;;;18.00;98.10;;;;;;6167142;23;20005;-91
2023/05/14 08:26:46;;;;;;;5.60;5.05;;;18.10;97.90;;;;;;6191245;23;20035;-92
2023/05/14 08:29:11;;;;;;;8.68;5.50;;;18.10;97.90;;;;;;6191266;23;20011;-90
2023/05/14 08:31:37;;;;;;;5.40;4.90;;;18.20;97.90;;;;;;6190478;23;20005;-91
2023/05/14 08:34:03;;;;;;;7.47;4.55;;;18.30;97.80;;;;;;6216799;23;20004;-89
2023/05/14 08:36:29;;;;;;;4.95;4.22;;;18.40;97.60;;;;;;6190936;23;20036;-89
2023/05/14 08:38:55;;;;;;;5.05;4.35;;;18.50;97.60;;;;;;6190363;23;20001;-91
2023/05/14 08:41:20;;;;;;;6.05;4.63;;;18.60;97.60;;;;;;6217441;23;19997;-88
2023/05/14 08:44:12;;;;;;;6.45;4.95;;;18.60;97.40;;;;;;6166033;23;20012;-90
2023/05/14 08:46:39;;;;;;;5.85;4.30;;;18.70;97.20;;;;;;6190746;23;20012;-90
2023/05/14 08:49:32;;;;;;;5.75;4.47;;;18.80;97.30;;;;;;6191175;23;20000;-89
2023/05/14 08:51:58;;;;;;;4.40;4.00;;;18.90;97.30;;;;;;6217263;23;20005;-89
2023/05/14 08:54:25;;;;;;;5.93;4.43;;;19.00;97.30;;;;;;6191270;23;20142;-89
2023/05/14 08:56:52;;;;;;;6.43;3.80;;;19.00;97.00;;;;;;6191374;23;20131;-89
2023/05/14 08:59:18;;;;;;;4.47;3.90;;;19.10;96.80;;;;;;6218570;23;19997;-89
2023/05/14 09:01:47;;;;;;;4.47;3.60;;;19.20;96.70;;;;;;6194857;23;20060;-88
2023/05/14 09:04:19;;;;;;;6.65;4.30;;;19.20;96.50;;;;;;6193506;23;20000;-88
2023/05/14 09:06:48;;;;;;;6.40;3.47;;;19.30;95.90;;;;;;6239571;23;20023;-86
2023/05/14 09:09:16;;;;;;;6.18;3.80;;;19.40;95.60;;;;;;6219534;23;19989;-88
2023/05/14 09:11:49;;;;;;;5.30;3.65;;;19.50;95.30;;;;;;6193901;23;20016;-88
2023/05/14 09:14:16;;;;;;;4.43;3.65;;;19.50;95.00;;;;;;6215951;23;20044;-89
2023/05/14 09:16:44;;;;;;;5.43;3.78;;;19.60;94.80;;;;;;6222176;23;20016;-90
2023/05/14 09:19:12;;;;;;;5.13;3.38;;;19.60;94.20;;;;;;6195650;23;20062;-88
2023/05/14 09:21:39;;;;;;;4.32;3.28;;;19.70;93.90;;;;;;6220610;23;20440;-87
2023/05/14 09:24:05;;;;;;;3.55;2.85;;;19.80;93.40;;;;;;6169968;23;20442;-88
2023/05/14 09:26:32;;;;;;;4.25;3.17;;;19.80;93.50;;;;;;6194494;23;20004;-88
2023/05/14 09:29:02;;;;;;;5.32;3.08;;;19.90;93.60;;;;;;6169459;23;20005;-88
2023/05/14 09:31:32;;;;;;;3.20;2.85;;;20.00;93.30;;;;;;6168626;23;20490;-88
2023/05/14 09:33:59;;;;;;;4.25;2.78;;;20.00;92.90;;;;;;6193403;23;20004;-89
2023/05/14 09:36:26;;;;;;;3.70;2.80;;;20.10;93.00;;;;;;6219766;23;20099;-88
2023/05/14 09:38:52;;;;;;;4.25;3.30;;;20.20;93.20;;;;;;6193505;23;20005;-89
2023/05/14 09:41:18;;;;;;;4.18;2.97;;;20.20;92.90;;;;;;6168898;23;20004;-88
2023/05/14 09:43:44;;;;;;;8.15;3.85;;;20.30;92.80;;;;;;6193153;23;20071;-88
2023/05/14 09:46:13;;;;;;;4.72;2.90;;;20.30;92.10;;;;;;6167714;23;20012;-89
2023/05/14 09:48:39;;;;;;;4.40;3.20;;;20.30;92.30;;;;;;6219991;23;20011;-88
2023/05/14 09:51:04;;;;;;;4.97;3.20;;;20.40;92.50;;;;;;6193207;23;20001;-88
2023/05/14 09:53:32;;;;;;;5.43;3.47;;;20.50;92.70;;;;;;6168563;23;20319;-88
2023/05/14 09:55:57;;;;;;;5.05;3.08;;;20.60;93.00;;;;;;6218974;23;20008;-89
2023/05/14 09:58:23;;;;;;;3.13;2.78;;;20.60;93.50;;;;;;6193314;23;20031;-87
2023/05/14 10:00:50;;;;;;;3.00;2.70;;;20.70;93.00;;;;;;6193014;23;20011;-88
2023/05/14 10:03:18;;;;;;;4.63;3.10;;;20.70;92.70;;;;;;6219382;23;19996;-87
2023/05/14 10:05:44;;;;;;;4.30;2.85;;;20.80;92.60;;;;;;6167496;23;20011;-88
2023/05/14 10:08:19;;;;;;;4.68;3.03;;;20.90;92.70;;;;;;6192598;23;20092;-89
2023/05/14 10:14:44;;;;;;;4.07;2.67;;;21.00;92.60;;;;;;6218717;23;20008;-88
2023/05/14 10:17:17;;;;;;;3.58;2.70;;;21.00;92.80;;;;;;6218909;23;20016;-87
2023/05/14 10:19:49;;;;;;;3.47;2.80;;;21.10;92.80;;;;;;6192980;23;20028;-90
2023/05/14 10:22:21;;;;;;;3.08;2.67;;;21.20;92.70;;;;;;6219083;23;20036;-90
2023/05/14 10:24:51;;;;;;;4.70;2.95;;;21.20;92.70;;;;;;6192048;23;20031;-89
2023/05/14 10:27:20;;;;;;;2.90;2.65;;;21.30;92.80;;;;;;6192850;23;20009;-88
2023/05/14 10:29:54;;;;;;;5.57;3.17;;;21.40;92.80;;;;;;6219018;23;19997;-88
2023/05/14 10:32:23;;;;;;;3.30;2.28;;;21.40;93.00;;;;;;6192949;23;20473;-88
2023/05/14 10:34:48;;;;;;;2.75;2.53;;;21.50;92.60;;;;;;6163044;23;20019;-88
2023/05/14 10:37:22;;;;;;;3.58;3.28;;;21.60;92.60;;;;;;6132495;23;20048;-88
2023/05/14 10:39:54;;;;;;;3.60;2.80;;;21.70;92.40;;;;;;6163585;23;20012;-91
2023/05/14 10:42:22;;;;;;;3.33;2.97;;;21.70;92.70;;;;;;6214225;23;20007;-90
2023/05/14 10:45:00;;;;;;;3.10;2.80;;;21.80;92.60;;;;;;6192181;23;20088;-88
2023/05/14 10:47:30;;;;;;;4.15;3.35;;;21.80;92.70;;;;;;6192479;23;20008;-88
2023/05/14 10:50:02;;;;;;;4.68;3.03;;;21.90;92.60;;;;;;6192626;23;19997;-87
2023/05/14 10:52:30;;;;;;;3.50;3.10;;;22.00;92.60;;;;;;6220026;23;20000;-88
2023/05/14 10:55:01;;;;;;;4.63;2.78;;;22.00;92.70;;;;;;6222569;23;20023;-87
2023/05/14 10:57:30;;;;;;;5.15;3.10;;;22.10;92.70;;;;;;6217046;23;19997;-88
2023/05/14 10:59:59;;;;;;;5.93;3.42;;;22.20;92.50;;;;;;6243636;23;19985;-90
2023/05/14 11:02:26;;;;;;;5.57;3.30;;;22.30;92.40;;;;;;6244512;23;19996;-87
2023/05/14 11:05:02;;;;;;;4.35;3.08;;;22.30;92.40;;;;;;6218584;23;19985;-88
2023/05/14 11:07:33;;;;;;;3.42;3.05;;;22.40;92.30;;;;;;6218237;23;20009;-87
2023/05/14 11:10:02;;;;;;;5.07;3.20;;;22.40;92.00;;;;;;6206119;23;20010;-88
2023/05/14 11:12:28;;;;;;;3.33;2.72;;;22.40;91.30;;;;;;6193249;23;20004;-90
2023/05/14 11:14:57;;;;;;;3.78;3.10;;;22.30;91.10;;;;;;6218450;23;20000;-89
2023/05/14 11:17:33;;;;;;;3.97;3.17;;;22.30;90.90;;;;;;6191076;23;20008;-88
2023/05/14 11:19:59;;;;;;;3.53;3.05;;;22.30;90.90;;;;;;6191852;23;20020;-85
2023/05/14 11:22:25;;;;;;;3.13;2.83;;;22.30;91.00;;;;;;6192452;23;20001;-89
2023/05/14 11:24:51;;;;;;;4.30;3.15;;;22.40;91.00;;;;;;6191285;23;20005;-89
2023/05/14 11:27:19;;;;;;;3.70;3.38;;;22.40;90.90;;;;;;6166445;23;20067;-88
2023/05/14 11:29:46;;;;;;;5.43;3.40;;;22.30;91.00;;;;;;6191783;23;20007;-88
2023/05/14 11:32:16;;;;;;;5.88;3.53;;;22.40;91.20;;;;;;6166491;23;20040;-88
2023/05/14 11:34:45;;;;;;;9.98;3.42;;;22.40;91.40;;;;;;6191477;23;20001;-90
2023/05/14 11:37:13;;;;;;;4.80;3.20;;;22.40;91.60;;;;;;6162799;23;20339;-90
2023/05/14 11:39:45;;;;;;;7.40;3.22;;;22.40;91.70;;;;;;6191105;23;20434;-90
2023/05/14 11:42:13;;;;;;;4.35;3.28;;;22.40;91.70;;;;;;6217526;23;20041;-90
2023/05/14 11:44:39;;;;;;;4.93;3.50;;;22.40;91.70;;;;;;6217529;23;20442;-90
2023/05/14 11:47:05;;;;;;;5.28;3.25;;;22.50;91.90;;;;;;6217794;23;20085;-90
2023/05/14 11:49:31;;;;;;;4.03;3.08;;;22.40;91.90;;;;;;6191739;23;20020;-90
2023/05/14 11:52:01;;;;;;;4.88;3.67;;;22.50;92.00;;;;;;6191299;23;20012;-89
2023/05/14 11:54:27;;;;;;;3.42;3.10;;;22.40;92.00;;;;;;6190746;23;20013;-90
2023/05/14 11:56:57;;;;;;;4.70;3.78;;;22.40;92.10;;;;;;6190845;23;20055;-92
2023/05/14 11:59:25;;;;;;;5.97;3.20;;;22.40;92.20;;;;;;6217113;23;20021;-89
2023/05/14 12:01:51;;;;;;;6.05;3.72;;;22.40;92.20;;;;;;6217265;23;20008;-89
2023/05/14 12:04:21;;;;;;;3.67;3.25;;;22.40;92.20;;;;;;6190515;23;20009;-90
2023/05/14 12:06:50;;;;;;;3.90;2.97;;;22.40;92.20;;;;;;6217435;23;20008;-89
2023/05/14 12:09:20;;;;;;;4.03;2.57;;;22.40;92.10;;;;;;6216912;23;20319;-89
2023/05/14 12:11:48;;;;;;;3.22;2.75;;;22.40;92.00;;;;;;6190601;23;20092;-90
2023/05/14 12:14:16;;;;;;;2.95;2.60;;;22.40;91.80;;;;;;6190634;23;20009;-90
2023/05/14 12:16:43;;;;;;;4.50;2.95;;;22.40;91.70;;;;;;6166202;23;20009;-89
2023/05/14 12:19:10;;;;;;;4.85;2.80;;;22.40;91.20;;;;;;6217494;23;19997;-90
2023/05/14 12:21:37;;;;;;;3.53;2.35;;;22.40;90.90;;;;;;6218172;23;20069;-90
2023/05/14 12:24:03;;;;;;;4.90;2.83;;;22.30;90.80;;;;;;6220526;23;20001;-90
2023/05/14 12:26:32;;;;;;;2.60;2.40;;;22.40;90.90;;;;;;6168817;23;20418;-90
2023/05/14 12:29:02;;;;;;;4.07;2.95;;;22.40;90.80;;;;;;6191456;23;20005;-90
2023/05/14 12:31:33;;;;;;;3.30;2.70;;;22.40;90.80;;;;;;6219898;23;20004;-92
2023/05/14 12:34:00;;;;;;;;;;;22.50;91.00;;;;;;6223825;23;20422;-90
2023/05/14 12:36:27;;;;;;;4.72;3.00;;;22.50;91.20;;;;;;6221696;23;19901;-90
2023/05/14 12:39:00;;;;;;;6.85;3.03;;;22.50;91.30;;;;;;6195540;23;20378;-90
2023/05/14 12:41:27;;;;;;;4.72;3.20;;;22.60;91.40;;;;;;6196368;23;19997;-90
2023/05/14 12:43:52;;;;;;;4.13;3.13;;;22.60;91.30;;;;;;6197350;23;20054;-89